Time;durP1;ratioP1;P1;durP2;ratioP2;P2;SDS_P1;SDS_P2;PMS_P1;PMS_P2;Temp;Humidity;BMP_temperature;BMP_pressure;BME280_temperature;BME280_humidity;BME280_pressure;Samples;Min_cycle;Max_cycle;Signal;HPM_P1;HPM_P2
2022/06/24 00:00:12;;;;;;;51.65;30.52;;;25.50;99.90;;;;;;4951661;29;20035;-67
2022/06/24 00:02:40;;;;;;;44.75;29.27;;;25.50;99.90;;;;;;4935550;29;20032;-67
2022/06/24 00:05:10;;;;;;;49.25;30.15;;;25.50;99.90;;;;;;4934736;29;20499;-65
2022/06/24 00:07:50;;;;;;;55.55;30.08;;;25.50;99.90;;;;;;4934720;29;20122;-66
2022/06/24 00:10:19;;;;;;;59.65;31.05;;;25.50;99.90;;;;;;4953314;29;20393;-66
2022/06/24 00:12:47;;;;;;;43.67;28.45;;;25.50;99.90;;;;;;4953910;29;20031;-66
2022/06/24 00:15:15;;;;;;;104.50;51.85;;;25.50;99.90;;;;;;4953682;29;20110;-66
2022/06/24 00:17:42;;;;;;;91.20;56.13;;;25.50;99.90;;;;;;5032695;28;20044;-70
2022/06/24 00:20:16;;;;;;;102.20;63.50;;;25.60;99.90;;;;;;5072010;28;20013;-67
2022/06/24 00:22:49;;;;;;;65.10;36.60;;;25.70;99.90;;;;;;5073369;28;20020;-67
2022/06/24 00:25:21;;;;;;;49.13;29.92;;;25.70;99.90;;;;;;5073497;28;20052;-65
2022/06/24 00:28:07;;;;;;;;;;;25.70;99.90;;;;;;5074155;28;20466;-66
2022/06/24 00:30:54;;;;;;;59.25;34.08;;;25.70;99.90;;;;;;5059328;28;19936;-67
2022/06/24 00:33:24;;;;;;;49.13;27.63;;;25.80;99.90;;;;;;5052138;28;20032;-68
2022/06/24 00:35:52;;;;;;;67.25;47.25;;;25.80;99.90;;;;;;5047098;28;20033;-66
2022/06/24 00:38:22;;;;;;;54.38;34.55;;;25.80;99.90;;;;;;5042282;28;20052;-66
2022/06/24 00:40:55;;;;;;;51.67;29.30;;;25.80;99.90;;;;;;5053028;28;20032;-66
2022/06/24 00:43:53;;;;;;;45.38;27.17;;;25.80;99.90;;;;;;5039716;28;20436;-67
2022/06/24 00:46:27;;;;;;;47.47;26.85;;;25.80;99.90;;;;;;4953460;28;20039;-66
2022/06/24 00:48:58;;;;;;;38.80;25.00;;;25.80;99.90;;;;;;4960089;28;20091;-67
2022/06/24 00:51:34;;;;;;;39.40;26.30;;;25.90;99.90;;;;;;4972503;28;20031;-66
2022/06/24 00:54:10;;;;;;;81.35;58.35;;;26.00;99.90;;;;;;4958816;28;20083;-66
2022/06/24 00:56:36;;;;;;;50.30;33.13;;;26.00;99.90;;;;;;4954177;28;20122;-66
2022/06/24 00:59:07;;;;;;;43.63;26.90;;;26.10;99.90;;;;;;4960809;28;20106;-67
2022/06/24 01:01:36;;;;;;;32.78;24.73;;;26.20;99.90;;;;;;4957276;28;20555;-66
2022/06/24 01:04:04;;;;;;;33.53;21.67;;;26.20;99.90;;;;;;4960304;28;20035;-67
2022/06/24 01:06:31;;;;;;;33.42;22.15;;;26.30;99.90;;;;;;4971700;28;20066;-67
2022/06/24 01:08:58;;;;;;;35.20;21.50;;;26.40;99.90;;;;;;4975818;28;20043;-67
2022/06/24 01:11:30;;;;;;;34.55;19.52;;;26.40;99.90;;;;;;4976158;28;20067;-67
2022/06/24 01:13:57;;;;;;;31.15;18.77;;;26.30;99.90;;;;;;4971777;28;20132;-66
2022/06/24 01:16:25;;;;;;;31.63;19.45;;;26.20;99.90;;;;;;4974872;28;20130;-67
2022/06/24 01:18:53;;;;;;;33.70;19.25;;;26.20;99.90;;;;;;4973608;28;20054;-67
2022/06/24 01:21:40;;;;;;;29.88;18.77;;;26.20;99.90;;;;;;4974076;28;20109;-66
2022/06/24 01:24:11;;;;;;;34.45;18.77;;;26.20;99.90;;;;;;4974996;28;20113;-66
2022/06/24 01:26:41;;;;;;;30.75;19.15;;;26.10;99.90;;;;;;4975463;28;20027;-67
2022/06/24 01:29:08;;;;;;;30.85;19.52;;;26.20;99.90;;;;;;4971824;28;20038;-66
2022/06/24 01:31:38;;;;;;;34.10;19.70;;;26.20;99.90;;;;;;4989996;28;20034;-65
2022/06/24 01:34:05;;;;;;;30.35;17.77;;;26.20;99.90;;;;;;4992812;28;20030;-65
2022/06/24 01:36:32;;;;;;;28.00;15.70;;;26.30;99.90;;;;;;4993234;28;20038;-66
2022/06/24 01:38:58;;;;;;;23.40;13.77;;;26.30;99.90;;;;;;4991730;28;20034;-67
2022/06/24 01:41:25;;;;;;;18.05;10.63;;;26.30;99.90;;;;;;4994121;28;20038;-67
2022/06/24 01:43:52;;;;;;;14.13;7.68;;;26.40;99.90;;;;;;5074560;28;20376;-63
2022/06/24 01:46:19;;;;;;;14.50;8.23;;;26.30;99.90;;;;;;5074051;28;20020;-64
2022/06/24 01:48:45;;;;;;;13.38;8.00;;;26.20;99.90;;;;;;5075266;28;20024;-65
2022/06/24 01:51:14;;;;;;;15.13;10.02;;;26.20;99.90;;;;;;5072514;28;20489;-65
2022/06/24 01:53:41;;;;;;;20.00;11.13;;;26.30;99.90;;;;;;5075276;28;20082;-64
2022/06/24 01:56:08;;;;;;;12.40;8.57;;;26.30;99.90;;;;;;5074871;28;20535;-64
2022/06/24 01:58:35;;;;;;;16.88;7.95;;;26.20;99.90;;;;;;5072895;28;20033;-64
2022/06/24 02:01:02;;;;;;;10.77;6.18;;;26.20;99.90;;;;;;5069065;28;20024;-64
2022/06/24 02:03:34;;;;;;;9.00;5.95;;;26.30;99.90;;;;;;5072193;28;20031;-64
2022/06/24 02:06:05;;;;;;;14.00;7.25;;;26.40;99.90;;;;;;5075925;28;20025;-64
2022/06/24 02:08:32;;;;;;;16.25;7.40;;;26.40;99.90;;;;;;5063572;28;20064;-65
2022/06/24 02:13:48;;;;;;;18.52;7.00;;;26.60;99.90;;;;;;5055872;28;20032;-66
2022/06/24 02:16:16;;;;;;;15.07;5.78;;;26.80;99.90;;;;;;5056122;28;20029;-66
2022/06/24 02:18:43;;;;;;;12.65;6.68;;;26.90;99.90;;;;;;5060382;28;20055;-67
2022/06/24 02:21:10;;;;;;;11.80;6.53;;;27.00;99.90;;;;;;5073664;28;20029;-66
2022/06/24 02:23:36;;;;;;;12.38;6.07;;;27.20;99.90;;;;;;5075192;28;20025;-65
2022/06/24 02:26:04;;;;;;;12.05;6.82;;;27.30;99.90;;;;;;5066575;28;20021;-69
2022/06/24 02:28:31;;;;;;;13.50;5.88;;;27.40;99.90;;;;;;5057016;28;20043;-65
2022/06/24 02:30:59;;;;;;;12.02;5.78;;;27.50;99.90;;;;;;5059003;28;20095;-64
2022/06/24 02:33:28;;;;;;;14.07;5.80;;;27.60;99.90;;;;;;5052796;28;20035;-65
2022/06/24 02:35:55;;;;;;;68.85;52.63;;;27.70;99.90;;;;;;5051150;28;20021;-66
2022/06/24 02:38:22;;;;;;;167.85;122.55;;;27.80;99.90;;;;;;5049058;28;20040;-66
2022/06/24 02:40:48;;;;;;;84.30;60.38;;;27.80;99.90;;;;;;5044575;28;20091;-65
2022/06/24 02:43:20;;;;;;;29.83;22.25;;;27.80;99.90;;;;;;5052393;28;20029;-64
2022/06/24 02:45:49;;;;;;;20.15;13.27;;;27.90;99.90;;;;;;5050769;28;20056;-66
2022/06/24 02:48:16;;;;;;;172.10;118.55;;;27.90;99.90;;;;;;5054506;28;20083;-67
2022/06/24 02:50:45;;;;;;;51.47;38.25;;;27.90;99.90;;;;;;5053497;28;20028;-66
2022/06/24 02:53:14;;;;;;;18.48;9.77;;;27.90;99.90;;;;;;5053543;28;20071;-66
2022/06/24 02:55:42;;;;;;;12.07;5.95;;;28.00;99.90;;;;;;5054529;28;20029;-66
2022/06/24 02:58:09;;;;;;;13.50;6.03;;;28.00;99.90;;;;;;5055285;28;20021;-66
2022/06/24 03:00:36;;;;;;;6.75;5.20;;;28.10;99.90;;;;;;5053501;28;20028;-67
2022/06/24 03:03:02;;;;;;;11.20;5.93;;;28.20;99.90;;;;;;5054863;28;20104;-69
2022/06/24 03:05:29;;;;;;;15.48;4.95;;;28.20;99.90;;;;;;5053676;28;20033;-69
2022/06/24 03:07:56;;;;;;;6.57;4.63;;;28.30;99.90;;;;;;5046562;28;20029;-70
2022/06/24 03:10:23;;;;;;;7.80;4.80;;;28.50;99.90;;;;;;5053331;28;20040;-67
2022/06/24 03:12:50;;;;;;;11.85;4.63;;;28.60;99.90;;;;;;5052458;28;20060;-67
2022/06/24 03:15:17;;;;;;;13.70;4.95;;;28.70;99.90;;;;;;5048351;28;20048;-66
2022/06/24 03:17:44;;;;;;;10.77;5.63;;;28.70;99.90;;;;;;5048998;28;20029;-67
2022/06/24 03:20:11;;;;;;;11.38;5.47;;;28.80;99.90;;;;;;5051430;28;20024;-67
2022/06/24 03:22:38;;;;;;;10.10;4.65;;;28.80;99.90;;;;;;5035118;28;20029;-66
2022/06/24 03:25:06;;;;;;;7.07;4.95;;;28.80;99.90;;;;;;5020414;28;20470;-68
2022/06/24 03:27:36;;;;;;;9.75;4.95;;;28.80;99.90;;;;;;5037590;28;20031;-66
2022/06/24 03:30:03;;;;;;;7.10;4.65;;;28.90;99.90;;;;;;5040564;28;20143;-64
2022/06/24 03:32:30;;;;;;;10.88;5.32;;;29.00;99.90;;;;;;5053167;28;20033;-63
2022/06/24 03:34:57;;;;;;;8.00;4.80;;;28.90;99.90;;;;;;5050869;28;20474;-64
2022/06/24 03:37:23;;;;;;;9.02;5.00;;;28.90;99.90;;;;;;5048199;28;20501;-64
2022/06/24 03:39:50;;;;;;;10.30;4.70;;;29.00;99.90;;;;;;5050700;28;20100;-64
2022/06/24 03:42:17;;;;;;;8.82;5.40;;;29.10;99.90;;;;;;5035985;28;20322;-64
2022/06/24 03:44:45;;;;;;;8.98;4.50;;;29.10;99.90;;;;;;5053205;28;20021;-65
2022/06/24 03:47:12;;;;;;;9.82;4.40;;;29.20;99.90;;;;;;5030667;28;20043;-65
2022/06/24 03:49:39;;;;;;;6.75;3.90;;;29.30;99.90;;;;;;5050282;28;20021;-67
2022/06/24 03:52:06;;;;;;;3.80;2.90;;;29.40;99.90;;;;;;5052658;28;20025;-65
2022/06/24 03:54:33;;;;;;;10.52;3.95;;;29.40;99.90;;;;;;5053132;28;20091;-65
2022/06/24 03:57:01;;;;;;;6.03;4.03;;;29.50;99.90;;;;;;5052829;28;20021;-66
2022/06/24 03:59:28;;;;;;;7.63;3.33;;;29.70;99.90;;;;;;5045796;28;20243;-65
2022/06/24 04:01:55;;;;;;;6.47;4.15;;;29.60;99.90;;;;;;5046193;28;20021;-64
2022/06/24 04:04:22;;;;;;;5.43;3.42;;;29.70;99.90;;;;;;5049603;28;20484;-65
2022/06/24 04:06:48;;;;;;;10.18;4.53;;;29.60;99.90;;;;;;5053550;28;20039;-67
2022/06/24 04:09:15;;;;;;;6.35;2.90;;;29.50;99.90;;;;;;5051063;28;20028;-69
2022/06/24 04:11:42;;;;;;;5.57;3.10;;;29.50;99.90;;;;;;5053811;28;20037;-67
2022/06/24 04:14:09;;;;;;;3.83;2.28;;;29.40;99.90;;;;;;5052554;28;20415;-69
2022/06/24 04:16:35;;;;;;;9.77;2.75;;;29.40;99.90;;;;;;5018780;28;20109;-68
2022/06/24 04:19:02;;;;;;;3.97;2.55;;;29.30;99.90;;;;;;5051419;28;20151;-68
2022/06/24 04:21:31;;;;;;;4.43;2.38;;;29.30;99.90;;;;;;5052938;28;20469;-69
2022/06/24 04:24:01;;;;;;;3.47;2.47;;;29.40;99.90;;;;;;5052002;28;20446;-68
2022/06/24 04:26:27;;;;;;;4.38;2.47;;;29.50;99.90;;;;;;5049672;28;20028;-69
2022/06/24 04:28:54;;;;;;;5.47;3.00;;;29.60;99.90;;;;;;5050035;28;20032;-65
2022/06/24 04:31:22;;;;;;;4.88;2.40;;;29.60;99.90;;;;;;5049473;28;20073;-66
2022/06/24 04:33:49;;;;;;;4.05;2.40;;;29.40;99.90;;;;;;5051402;28;20108;-65
2022/06/24 04:36:16;;;;;;;5.40;2.92;;;29.40;99.90;;;;;;5049700;28;20023;-65
2022/06/24 04:38:44;;;;;;;4.15;2.08;;;29.40;99.90;;;;;;5051786;28;20042;-66
2022/06/24 04:41:13;;;;;;;4.35;2.72;;;29.40;99.90;;;;;;5051579;28;20032;-66
2022/06/24 04:43:40;;;;;;;7.18;4.93;;;29.40;99.90;;;;;;5048387;28;20028;-66
2022/06/24 04:46:07;;;;;;;12.10;7.63;;;29.40;99.90;;;;;;5050959;28;20092;-66
2022/06/24 04:48:35;;;;;;;4.88;3.22;;;29.50;99.90;;;;;;5048642;28;20029;-66
2022/06/24 04:51:03;;;;;;;6.10;2.65;;;29.60;99.90;;;;;;5050766;28;20064;-66
2022/06/24 04:53:31;;;;;;;6.70;3.50;;;29.60;99.90;;;;;;5053420;28;20094;-66
2022/06/24 04:55:58;;;;;;;8.55;5.95;;;29.50;99.90;;;;;;5053559;28;20017;-68
2022/06/24 04:58:25;;;;;;;6.38;3.17;;;29.60;99.90;;;;;;5031695;28;20022;-66
2022/06/24 05:00:51;;;;;;;6.63;3.15;;;29.50;99.90;;;;;;5039114;28;20172;-65
2022/06/24 05:03:18;;;;;;;8.13;3.95;;;29.50;99.90;;;;;;5034158;28;20379;-65
2022/06/24 05:05:45;;;;;;;6.20;3.50;;;29.60;99.90;;;;;;5034830;28;20018;-67
2022/06/24 05:08:12;;;;;;;6.30;3.33;;;29.60;99.90;;;;;;5051691;28;20017;-65
2022/06/24 05:10:41;;;;;;;7.32;4.25;;;29.70;99.90;;;;;;5052392;28;20025;-67
2022/06/24 05:13:09;;;;;;;38.25;26.33;;;29.70;99.90;;;;;;5053296;28;20079;-68
2022/06/24 05:15:36;;;;;;;60.80;40.60;;;29.70;99.90;;;;;;5051550;28;20033;-67
2022/06/24 05:18:03;;;;;;;28.23;17.85;;;29.80;99.90;;;;;;5049727;28;20068;-66
2022/06/24 05:20:30;;;;;;;9.63;7.63;;;29.80;99.90;;;;;;5051854;28;20500;-64
2022/06/24 05:22:57;;;;;;;8.57;5.07;;;29.90;99.90;;;;;;5052497;28;20025;-66
2022/06/24 05:25:23;;;;;;;21.80;16.30;;;29.90;99.90;;;;;;5034087;28;20426;-67
2022/06/24 05:27:50;;;;;;;60.83;46.63;;;30.00;99.90;;;;;;5052769;28;20477;-65
2022/06/24 05:30:17;;;;;;;18.05;13.77;;;30.00;99.90;;;;;;5056171;28;20362;-67
2022/06/24 05:32:43;;;;;;;14.73;10.35;;;30.00;99.90;;;;;;5060564;28;20472;-67
2022/06/24 05:35:10;;;;;;;12.57;6.85;;;30.00;99.90;;;;;;5039500;28;20037;-67
2022/06/24 05:37:39;;;;;;;21.52;15.48;;;30.10;99.90;;;;;;5057322;28;20481;-68
2022/06/24 05:40:07;;;;;;;35.65;23.98;;;30.20;99.90;;;;;;5056709;28;20025;-68
2022/06/24 05:42:34;;;;;;;31.38;23.42;;;30.20;99.90;;;;;;5058731;28;20499;-68
2022/06/24 05:45:01;;;;;;;46.10;37.08;;;30.20;99.90;;;;;;5062954;28;20048;-67
2022/06/24 05:47:28;;;;;;;22.42;15.02;;;30.20;99.90;;;;;;5069754;28;20549;-66
2022/06/24 05:49:54;;;;;;;8.32;5.85;;;30.40;99.90;;;;;;5059371;28;20378;-68
2022/06/24 05:55:02;;;;;;;10.00;5.25;;;30.30;99.90;;;;;;5060622;28;20036;-68
2022/06/24 05:55:08;;;;;;;9.38;5.47;;;30.30;99.90;;;;;;5061040;28;20505;-68
2022/06/24 05:57:35;;;;;;;12.65;5.25;;;30.20;99.90;;;;;;5060338;28;20037;-67
2022/06/24 06:00:02;;;;;;;9.50;8.00;;;30.30;99.90;;;;;;5059010;28;20050;-69
2022/06/24 06:02:28;;;;;;;6.85;3.55;;;30.20;99.90;;;;;;5044912;28;20041;-67
2022/06/24 06:04:55;;;;;;;8.32;4.72;;;30.20;99.90;;;;;;5059993;28;20040;-66
2022/06/24 06:07:23;;;;;;;6.50;3.55;;;30.30;99.90;;;;;;5058732;28;20049;-68
2022/06/24 06:09:49;;;;;;;4.38;3.30;;;30.30;99.90;;;;;;5053839;28;20028;-67
2022/06/24 06:12:16;;;;;;;6.00;3.30;;;30.30;99.90;;;;;;5054447;28;20025;-67
2022/06/24 06:14:44;;;;;;;7.75;3.85;;;30.40;99.90;;;;;;5053068;28;20040;-66
2022/06/24 06:17:11;;;;;;;6.57;3.95;;;30.50;99.90;;;;;;5052527;28;20057;-65
2022/06/24 06:19:38;;;;;;;6.60;4.25;;;30.50;99.90;;;;;;5052057;28;20045;-65
2022/06/24 06:22:05;;;;;;;6.40;3.33;;;30.60;99.90;;;;;;5065787;28;20036;-65
2022/06/24 06:24:32;;;;;;;6.70;2.72;;;30.70;99.90;;;;;;5076319;28;20108;-64
2022/06/24 06:26:59;;;;;;;11.73;5.45;;;30.70;99.90;;;;;;5065715;28;20099;-65
2022/06/24 06:29:26;;;;;;;4.53;3.08;;;30.80;99.90;;;;;;5063561;28;20051;-67
2022/06/24 06:31:53;;;;;;;5.35;3.20;;;30.90;99.90;;;;;;5054726;28;20427;-66
2022/06/24 06:34:20;;;;;;;36.17;25.15;;;30.90;99.90;;;;;;5054177;28;20403;-66
2022/06/24 06:36:47;;;;;;;81.47;54.63;;;30.90;99.90;;;;;;5052217;28;20056;-65
2022/06/24 06:39:14;;;;;;;36.88;24.40;;;30.90;99.90;;;;;;5052729;28;20159;-66
2022/06/24 06:41:46;;;;;;;12.85;9.70;;;31.00;99.90;;;;;;5052120;28;20016;-65
2022/06/24 06:44:15;;;;;;;31.17;23.23;;;31.10;99.90;;;;;;5053224;28;20025;-64
2022/06/24 06:46:42;;;;;;;104.35;75.18;;;31.20;99.90;;;;;;5055068;28;20070;-65
2022/06/24 06:49:09;;;;;;;24.23;18.17;;;31.10;99.90;;;;;;5028007;28;20024;-65
2022/06/24 06:51:36;;;;;;;86.18;66.93;;;30.90;99.90;;;;;;5053928;28;20078;-64
2022/06/24 06:54:03;;;;;;;47.65;35.13;;;30.80;99.90;;;;;;5052787;28;20017;-65
2022/06/24 06:56:30;;;;;;;16.83;7.65;;;30.70;99.90;;;;;;5052147;28;20025;-64
2022/06/24 06:58:57;;;;;;;13.07;6.10;;;30.60;99.90;;;;;;5052935;28;20086;-65
2022/06/24 07:01:23;;;;;;;12.27;6.07;;;30.60;99.90;;;;;;5050011;28;20024;-66
2022/06/24 07:03:50;;;;;;;7.43;4.60;;;30.60;99.90;;;;;;5022265;28;20021;-65
2022/06/24 07:06:17;;;;;;;7.97;3.72;;;30.70;99.90;;;;;;5046299;28;20021;-64
2022/06/24 07:08:43;;;;;;;13.85;7.60;;;30.80;99.90;;;;;;5047891;28;20041;-65
2022/06/24 07:11:10;;;;;;;22.65;19.20;;;31.00;99.90;;;;;;5050641;28;20017;-66
2022/06/24 07:13:37;;;;;;;25.17;20.48;;;31.10;99.90;;;;;;5049241;28;20029;-65
2022/06/24 07:16:09;;;;;;;13.13;8.50;;;31.00;99.90;;;;;;5050079;28;20033;-64
2022/06/24 07:18:36;;;;;;;5.75;3.15;;;31.10;99.90;;;;;;5054586;28;20021;-64
2022/06/24 07:21:03;;;;;;;10.13;3.55;;;31.10;99.90;;;;;;5054721;28;20029;-65
2022/06/24 07:23:30;;;;;;;10.68;5.75;;;31.20;99.90;;;;;;5054714;28;20036;-65
2022/06/24 07:25:57;;;;;;;9.63;3.88;;;31.30;99.90;;;;;;5043200;28;20024;-66
2022/06/24 07:28:25;;;;;;;6.78;4.38;;;31.20;99.90;;;;;;5043893;28;20111;-65
2022/06/24 07:30:53;;;;;;;10.07;4.43;;;31.10;99.90;;;;;;5016757;28;20064;-64
2022/06/24 07:33:22;;;;;;;7.97;4.68;;;31.00;99.90;;;;;;5046965;28;20028;-63
2022/06/24 07:35:49;;;;;;;8.20;5.15;;;31.00;99.90;;;;;;5053792;28;20386;-63
2022/06/24 07:38:16;;;;;;;9.70;5.20;;;30.90;99.90;;;;;;5053320;28;20048;-64
2022/06/24 07:40:45;;;;;;;10.80;4.95;;;30.90;99.90;;;;;;5025770;28;20025;-64
2022/06/24 07:43:12;;;;;;;7.00;4.72;;;30.90;99.90;;;;;;5047190;28;20489;-65
2022/06/24 07:45:39;;;;;;;6.97;4.25;;;30.90;99.90;;;;;;5053724;28;20509;-65
2022/06/24 07:48:06;;;;;;;8.25;4.43;;;30.90;99.90;;;;;;5053910;28;20033;-64
2022/06/24 07:50:35;;;;;;;15.82;11.23;;;30.90;99.90;;;;;;5050863;28;20067;-65
2022/06/24 07:53:04;;;;;;;114.32;85.22;;;30.70;99.90;;;;;;4946401;28;20064;-64
2022/06/24 07:58:17;;;;;;;24.38;18.10;;;30.70;99.90;;;;;;5051649;28;20055;-66
2022/06/24 08:00:44;;;;;;;68.57;52.15;;;30.70;99.90;;;;;;5053239;28;20021;-65
2022/06/24 08:03:11;;;;;;;28.23;21.33;;;30.60;99.90;;;;;;5051607;28;20112;-66
2022/06/24 08:05:47;;;;;;;45.05;13.90;;;30.60;99.90;;;;;;5051465;28;20021;-66
2022/06/24 08:08:13;;;;;;;19.65;6.80;;;30.50;99.90;;;;;;5051595;28;20085;-64
2022/06/24 08:10:40;;;;;;;24.35;6.85;;;30.40;99.90;;;;;;5052657;28;20029;-65
2022/06/24 08:13:07;;;;;;;15.52;5.80;;;30.40;99.90;;;;;;5051855;28;20029;-66
2022/06/24 08:15:33;;;;;;;10.32;4.57;;;30.30;99.90;;;;;;5050321;28;20025;-63
2022/06/24 08:18:00;;;;;;;15.05;6.40;;;30.20;99.90;;;;;;5050572;28;20477;-65
2022/06/24 08:20:27;;;;;;;9.00;5.55;;;30.10;99.90;;;;;;5046622;28;20033;-64
2022/06/24 08:22:56;;;;;;;11.02;6.78;;;30.10;99.90;;;;;;5050773;28;20021;-65
2022/06/24 08:25:23;;;;;;;12.85;7.82;;;29.90;99.90;;;;;;5033032;28;20401;-64
2022/06/24 08:27:51;;;;;;;9.23;6.40;;;29.90;99.90;;;;;;5053312;28;20021;-64
2022/06/24 08:30:18;;;;;;;10.55;6.68;;;29.70;99.90;;;;;;5053314;28;20048;-64
2022/06/24 08:32:45;;;;;;;13.00;6.03;;;29.60;99.90;;;;;;5049580;28;20504;-64
2022/06/24 08:35:12;;;;;;;10.07;5.82;;;29.50;99.90;;;;;;5034790;28;20028;-65
2022/06/24 08:37:38;;;;;;;11.63;6.45;;;29.40;99.90;;;;;;5049482;28;20339;-64
2022/06/24 08:40:06;;;;;;;9.20;5.10;;;29.40;99.90;;;;;;5054572;28;20021;-64
2022/06/24 08:42:33;;;;;;;10.32;5.88;;;29.30;99.90;;;;;;5051643;28;20052;-66
2022/06/24 08:45:00;;;;;;;13.18;7.75;;;29.20;99.90;;;;;;5053560;28;20013;-65
2022/06/24 08:47:27;;;;;;;16.83;6.72;;;29.10;99.90;;;;;;5050429;28;20393;-64
2022/06/24 08:49:54;;;;;;;16.77;8.43;;;28.90;99.90;;;;;;5053424;28;20474;-64
2022/06/24 08:52:21;;;;;;;14.98;9.82;;;28.90;99.90;;;;;;5050454;28;20056;-70
2022/06/24 08:54:50;;;;;;;17.48;10.50;;;28.70;99.90;;;;;;5043886;28;20138;-65
2022/06/24 08:57:17;;;;;;;22.08;10.05;;;28.60;99.90;;;;;;5050502;28;20053;-65
2022/06/24 08:59:45;;;;;;;39.85;30.38;;;28.50;99.90;;;;;;5049150;28;20029;-65
2022/06/24 09:02:17;;;;;;;83.50;58.95;;;28.60;99.90;;;;;;5049061;28;20078;-64
2022/06/24 09:04:45;;;;;;;47.25;32.53;;;28.70;99.90;;;;;;5051602;28;20028;-65
2022/06/24 09:07:31;;;;;;;78.82;58.88;;;28.70;99.90;;;;;;5033034;28;20409;-66
2022/06/24 09:10:05;;;;;;;23.15;17.30;;;28.80;99.90;;;;;;5052502;28;20041;-67
2022/06/24 09:12:38;;;;;;;19.35;11.48;;;28.80;99.90;;;;;;5051200;28;20033;-64
2022/06/24 09:15:07;;;;;;;27.05;19.90;;;28.70;99.90;;;;;;5051331;28;20052;-66
2022/06/24 09:17:35;;;;;;;9.43;4.30;;;28.60;99.90;;;;;;5049097;28;20055;-64
2022/06/24 09:20:08;;;;;;;12.77;3.20;;;28.20;99.90;;;;;;5054263;28;20091;-66
2022/06/24 09:22:35;;;;;;;14.88;2.80;;;27.90;99.90;;;;;;5056475;28;20037;-65
2022/06/24 09:25:03;;;;;;;7.63;3.00;;;27.80;99.90;;;;;;5054759;28;20540;-65
2022/06/24 09:27:30;;;;;;;7.63;2.90;;;27.70;99.90;;;;;;5054044;28;20037;-65
2022/06/24 09:29:57;;;;;;;10.52;3.53;;;27.60;99.90;;;;;;5057685;28;20044;-66
2022/06/24 09:32:24;;;;;;;44.28;10.98;;;27.40;99.90;;;;;;5056849;28;20044;-66
2022/06/24 09:35:04;;;;;;;62.20;18.42;;;27.30;99.90;;;;;;5067189;28;20017;-65
2022/06/24 09:37:36;;;;;;;83.20;27.83;;;27.30;99.90;;;;;;5067519;28;20033;-63
2022/06/24 09:40:37;;;;;;;26.05;10.20;;;27.10;99.90;;;;;;5060710;28;21062;-67
2022/06/24 09:43:06;;;;;;;8.90;4.45;;;26.90;99.90;;;;;;5066598;28;20035;-65
2022/06/24 09:45:43;;;;;;;9.32;3.40;;;26.80;99.90;;;;;;5065087;28;20044;-65
2022/06/24 09:48:12;;;;;;;4.93;3.00;;;26.50;99.90;;;;;;5042383;28;20033;-65
2022/06/24 09:50:41;;;;;;;16.65;8.55;;;26.50;99.90;;;;;;5054881;28;20025;-65
2022/06/24 09:53:09;;;;;;;16.77;9.63;;;26.50;99.90;;;;;;5034516;28;20033;-65
2022/06/24 09:55:37;;;;;;;22.98;18.52;;;26.40;99.90;;;;;;5046802;28;20036;-65
2022/06/24 09:58:04;;;;;;;16.02;12.23;;;26.40;99.90;;;;;;5048377;28;20531;-64
2022/06/24 10:00:40;;;;;;;13.27;7.70;;;26.40;99.90;;;;;;4997954;28;20034;-65
2022/06/24 10:03:11;;;;;;;66.05;44.55;;;26.50;99.90;;;;;;5012427;28;20034;-66
2022/06/24 10:05:43;;;;;;;20.88;12.02;;;26.40;99.90;;;;;;5016818;28;20117;-65
2022/06/24 10:08:20;;;;;;;28.85;19.27;;;26.50;99.90;;;;;;5022727;28;20033;-64
2022/06/24 10:10:51;;;;;;;10.57;5.55;;;26.50;99.90;;;;;;5020528;28;20446;-64
2022/06/24 10:13:33;;;;;;;3.55;2.10;;;26.50;99.90;;;;;;5023343;28;20022;-64
2022/06/24 10:16:03;;;;;;;71.85;54.45;;;26.50;99.90;;;;;;5019874;28;20034;-65
2022/06/24 10:18:35;;;;;;;98.70;75.68;;;26.50;99.90;;;;;;5018242;28;20057;-66
2022/06/24 10:21:03;;;;;;;;;;;26.50;99.90;;;;;;5011719;28;20059;-66
2022/06/24 10:23:47;;;;;;;71.18;56.60;;;26.50;99.90;;;;;;5013387;28;20003;-65
2022/06/24 10:26:16;;;;;;;7.57;4.85;;;26.50;99.90;;;;;;5011600;28;20165;-64
2022/06/24 10:29:03;;;;;;;5.50;3.33;;;26.50;99.90;;;;;;5009957;28;20030;-65
2022/06/24 10:31:53;;;;;;;6.35;3.22;;;26.50;99.90;;;;;;5043987;28;20516;-65
2022/06/24 10:34:20;;;;;;;6.68;3.20;;;26.50;99.90;;;;;;4993813;28;20046;-66
2022/06/24 10:36:50;;;;;;;7.15;3.95;;;26.50;99.90;;;;;;4984272;28;20527;-64
2022/06/24 10:39:19;;;;;;;9.35;3.40;;;26.50;99.90;;;;;;4990076;28;20038;-65
2022/06/24 10:41:45;;;;;;;8.00;3.20;;;26.50;99.90;;;;;;4994307;28;20188;-65
2022/06/24 10:44:34;;;;;;;7.03;3.13;;;26.60;99.90;;;;;;4991506;28;20038;-66
2022/06/24 10:47:10;;;;;;;6.38;3.70;;;26.60;99.90;;;;;;4994109;28;20435;-66
2022/06/24 10:50:00;;;;;;;85.93;62.28;;;26.60;99.90;;;;;;4992344;28;20396;-65
2022/06/24 10:52:37;;;;;;;19.77;14.20;;;26.60;99.90;;;;;;4992702;28;20031;-65
2022/06/24 10:55:28;;;;;;;19.77;13.85;;;26.60;99.90;;;;;;4983326;28;20558;-64
2022/06/24 10:57:57;;;;;;;30.02;21.52;;;26.60;99.90;;;;;;4913570;29;20123;-66
2022/06/24 11:00:28;;;;;;;13.38;7.10;;;26.60;99.90;;;;;;4914257;29;20059;-68
2022/06/24 11:03:08;;;;;;;54.28;28.77;;;26.60;99.90;;;;;;4916970;29;20028;-66
2022/06/24 11:05:36;;;;;;;76.10;57.75;;;26.70;99.90;;;;;;4940274;29;20039;-65
2022/06/24 11:08:09;;;;;;;52.17;40.00;;;26.80;99.90;;;;;;4954574;29;20505;-65
2022/06/24 11:10:36;;;;;;;14.88;9.27;;;26.80;99.90;;;;;;4953211;29;20078;-65
2022/06/24 11:13:23;;;;;;;11.55;4.97;;;26.90;99.90;;;;;;4950953;29;20106;-66
2022/06/24 11:15:55;;;;;;;15.48;5.20;;;26.80;99.90;;;;;;4934161;29;20074;-66
2022/06/24 11:18:25;;;;;;;9.63;5.43;;;26.80;99.90;;;;;;4935529;29;20039;-66
2022/06/24 11:20:55;;;;;;;12.38;6.05;;;26.90;99.90;;;;;;4932402;29;20038;-67
2022/06/24 11:23:24;;;;;;;8.80;4.78;;;26.90;99.90;;;;;;4933758;29;20047;-65
2022/06/24 11:25:57;;;;;;;16.38;5.72;;;26.90;99.90;;;;;;4936129;29;20070;-67
2022/06/24 11:28:30;;;;;;;9.48;5.40;;;26.80;99.90;;;;;;4936058;29;20077;-66
2022/06/24 11:31:13;;;;;;;9.45;5.07;;;26.80;99.90;;;;;;4935623;29;20130;-67
2022/06/24 11:33:40;;;;;;;8.73;5.18;;;26.80;99.90;;;;;;4935725;29;20096;-66
2022/06/24 11:36:09;;;;;;;11.98;5.13;;;26.80;99.90;;;;;;4934838;29;20032;-67
2022/06/24 11:38:58;;;;;;;123.90;75.47;;;26.90;99.90;;;;;;4933680;29;20044;-68
2022/06/24 11:41:26;;;;;;;35.65;26.60;;;26.90;99.90;;;;;;4932424;29;20081;-66
2022/06/24 11:43:53;;;;;;;37.08;25.73;;;26.90;99.90;;;;;;4933567;29;20090;-66
2022/06/24 11:46:20;;;;;;;65.32;42.88;;;27.00;99.90;;;;;;4933704;29;20063;-66
2022/06/24 11:48:46;;;;;;;66.53;48.78;;;27.00;99.90;;;;;;4933162;29;20036;-66
2022/06/24 11:51:23;;;;;;;89.05;60.30;;;27.00;99.90;;;;;;4933941;29;20036;-66
2022/06/24 11:54:00;;;;;;;77.35;57.50;;;27.00;99.90;;;;;;4934830;29;20079;-67
2022/06/24 11:56:31;;;;;;;39.08;27.92;;;27.00;99.90;;;;;;4934766;29;20416;-67
2022/06/24 11:59:03;;;;;;;14.53;7.97;;;27.00;99.90;;;;;;4933732;29;20028;-66
2022/06/24 12:01:31;;;;;;;12.68;5.97;;;27.00;99.90;;;;;;4988471;28;20038;-66
2022/06/24 12:04:00;;;;;;;12.10;4.80;;;26.90;99.90;;;;;;5012425;28;20095;-66
2022/06/24 12:06:28;;;;;;;8.70;4.47;;;26.90;99.90;;;;;;5026941;28;20042;-67
2022/06/24 12:08:57;;;;;;;8.35;4.50;;;26.90;99.90;;;;;;5037713;28;20036;-67
2022/06/24 12:11:26;;;;;;;12.85;4.60;;;26.90;99.90;;;;;;5037661;28;20025;-67
2022/06/24 12:13:58;;;;;;;10.20;5.10;;;26.90;99.90;;;;;;5038586;28;20029;-69
2022/06/24 12:16:29;;;;;;;11.93;7.00;;;26.90;99.90;;;;;;5050123;28;20106;-68
2022/06/24 12:19:06;;;;;;;11.98;6.30;;;26.90;99.90;;;;;;5050734;28;20065;-67
2022/06/24 12:21:37;;;;;;;12.05;6.40;;;26.80;99.90;;;;;;5047732;28;20409;-67
2022/06/24 12:24:26;;;;;;;12.93;6.45;;;26.80;99.90;;;;;;5048833;28;20044;-66
2022/06/24 12:26:55;;;;;;;13.70;7.68;;;26.80;99.90;;;;;;5045916;28;20055;-66
2022/06/24 12:29:30;;;;;;;17.13;6.93;;;26.80;99.90;;;;;;5047200;28;20033;-66
2022/06/24 12:31:58;;;;;;;13.23;7.00;;;26.80;99.90;;;;;;5052776;28;20028;-65
2022/06/24 12:34:32;;;;;;;15.77;7.40;;;26.80;99.90;;;;;;5054537;28;20051;-67
2022/06/24 12:37:01;;;;;;;17.65;7.97;;;26.80;99.90;;;;;;5057104;28;20035;-67
2022/06/24 12:39:31;;;;;;;14.68;7.80;;;26.80;99.90;;;;;;5059946;28;20028;-72
2022/06/24 12:41:58;;;;;;;15.55;7.95;;;26.70;99.90;;;;;;5060499;28;20024;-67
2022/06/24 12:44:48;;;;;;;17.65;8.38;;;26.80;99.90;;;;;;5059449;28;20123;-67
2022/06/24 12:53:01;;;;;;;15.60;8.52;;;26.70;99.90;;;;;;5033945;28;20475;-67
2022/06/24 12:55:29;;;;;;;14.90;8.43;;;26.70;99.90;;;;;;5046330;28;20083;-67
2022/06/24 12:57:55;;;;;;;15.30;8.80;;;26.70;99.90;;;;;;5060974;28;20086;-68